DLH63 EVRA-EETN
Flight info
| Callsign | DLH63 |
|---|---|
| Flight time | 0h 36m |
| Altitude | 23000 |
| Route | SOKVA DCT ANAMA DCT KEMET |
| Aircraft | A320/M-SDE3FGHIRWY/LB1 |
Departure
| Time | 2026-05-07 18:51 |
|---|---|
| Airport | Riga International Airport (EVRA) |
Arrival
| Time | 2026-05-07 19:28 |
|---|---|
| Airport | Lennart Meri Tallinn Airport (EETN) |
| Time | Latitude | Longitude | Altitude | Speed | Heading |
|---|---|---|---|---|---|
| 2026-05-07 18:00 | 56.92195 | 23.97584 | 37 ft | 0 kts | 6° |
| 2026-05-07 18:35 | 56.92191 | 23.97583 | 37 ft | 3 kts | 6° |
| 2026-05-07 18:36 | 56.92164 | 23.97580 | 35 ft | 4 kts | 351° |
| 2026-05-07 18:36 | 56.92142 | 23.97597 | 35 ft | 4 kts | 305° |
| 2026-05-07 18:36 | 56.92135 | 23.97621 | 37 ft | 0 kts | 275° |
| 2026-05-07 18:39 | 56.92138 | 23.97569 | 37 ft | 10 kts | 275° |
| 2026-05-07 18:40 | 56.92077 | 23.97454 | 37 ft | 21 kts | 184° |
| 2026-05-07 18:40 | 56.91894 | 23.97431 | 36 ft | 32 kts | 182° |
| 2026-05-07 18:40 | 56.91703 | 23.97402 | 38 ft | 27 kts | 187° |
| 2026-05-07 18:40 | 56.91502 | 23.97361 | 38 ft | 24 kts | 185° |
| 2026-05-07 18:41 | 56.91389 | 23.97346 | 38 ft | 19 kts | 186° |
| 2026-05-07 18:41 | 56.91238 | 23.97320 | 38 ft | 4 kts | 184° |
| 2026-05-07 18:41 | 56.91236 | 23.97320 | 38 ft | 3 kts | 185° |
| 2026-05-07 18:42 | 56.91139 | 23.97306 | 38 ft | 25 kts | 185° |
| 2026-05-07 18:42 | 56.90972 | 23.97253 | 39 ft | 23 kts | 212° |
| 2026-05-07 18:42 | 56.90829 | 23.97163 | 39 ft | 6 kts | 188° |
| 2026-05-07 18:42 | 56.90826 | 23.97163 | 39 ft | 0 kts | 188° |
| 2026-05-07 18:43 | 56.90819 | 23.97161 | 39 ft | 2 kts | 188° |
| 2026-05-07 18:45 | 56.90818 | 23.97161 | 39 ft | 3 kts | 188° |
| 2026-05-07 18:45 | 56.90776 | 23.97150 | 39 ft | 0 kts | 187° |
| 2026-05-07 18:46 | 56.90774 | 23.97150 | 39 ft | 4 kts | 187° |
| 2026-05-07 18:46 | 56.90723 | 23.97142 | 39 ft | 14 kts | 185° |
| 2026-05-07 18:46 | 56.90650 | 23.97036 | 39 ft | 0 kts | 250° |
| 2026-05-07 18:47 | 56.90647 | 23.97013 | 39 ft | 0 kts | 259° |
| 2026-05-07 18:49 | 56.90646 | 23.96972 | 38 ft | 12 kts | 269° |
| 2026-05-07 18:49 | 56.90678 | 23.96853 | 38 ft | 11 kts | 324° |
| 2026-05-07 18:49 | 56.90738 | 23.96844 | 37 ft | 0 kts | 5° |
| 2026-05-07 18:50 | 56.90738 | 23.96845 | 37 ft | 0 kts | 5° |
| 2026-05-07 18:50 | 56.90744 | 23.96846 | 37 ft | 4 kts | 6° |
| 2026-05-07 18:50 | 56.90998 | 23.96887 | 37 ft | 76 kts | 5° |
| 2026-05-07 18:51 | 56.91799 | 23.97014 | 38 ft | 155 kts | 5° |
| 2026-05-07 18:51 | 56.92997 | 23.97218 | 538 ft | 184 kts | 4° |
| 2026-05-07 18:51 | 56.94356 | 23.97464 | 1243 ft | 209 kts | 7° |
| 2026-05-07 18:51 | 56.95891 | 23.97769 | 2008 ft | 237 kts | 8° |
| 2026-05-07 18:52 | 56.97584 | 23.98137 | 2925 ft | 250 kts | 8° |
| 2026-05-07 18:52 | 56.99345 | 23.98545 | 3888 ft | 259 kts | 9° |
| 2026-05-07 18:52 | 57.01161 | 23.98991 | 4886 ft | 266 kts | 9° |
| 2026-05-07 18:52 | 57.03010 | 23.99468 | 5897 ft | 270 kts | 9° |
| 2026-05-07 18:53 | 57.04815 | 23.99972 | 6906 ft | 263 kts | 9° |
| 2026-05-07 18:53 | 57.06642 | 24.00295 | 7888 ft | 265 kts | 5° |
| 2026-05-07 18:53 | 57.08482 | 24.00774 | 8824 ft | 270 kts | 10° |
| 2026-05-07 18:53 | 57.10347 | 24.01496 | 9676 ft | 277 kts | 12° |
| 2026-05-07 18:54 | 57.12230 | 24.02372 | 9947 ft | 279 kts | 14° |
| 2026-05-07 18:54 | 57.14114 | 24.03340 | 10021 ft | 284 kts | 15° |
| 2026-05-07 18:54 | 57.16091 | 24.04398 | 10030 ft | 310 kts | 15° |
| 2026-05-07 18:54 | 57.18182 | 24.05536 | 10032 ft | 315 kts | 15° |
| 2026-05-07 18:55 | 57.20290 | 24.06686 | 10029 ft | 316 kts | 15° |
| 2026-05-07 18:55 | 57.22403 | 24.07839 | 10029 ft | 316 kts | 15° |
| 2026-05-07 18:55 | 57.24520 | 24.08991 | 10029 ft | 316 kts | 15° |
| 2026-05-07 18:55 | 57.26637 | 24.10138 | 10029 ft | 316 kts | 15° |
| 2026-05-07 18:56 | 57.28720 | 24.11265 | 10029 ft | 315 kts | 15° |
| 2026-05-07 18:56 | 57.30820 | 24.12401 | 10028 ft | 313 kts | 15° |
| 2026-05-07 18:56 | 57.32888 | 24.13647 | 10026 ft | 313 kts | 22° |
| 2026-05-07 18:56 | 57.34779 | 24.15677 | 10027 ft | 316 kts | 36° |
| 2026-05-07 18:57 | 57.36357 | 24.18512 | 10030 ft | 318 kts | 49° |
| 2026-05-07 18:57 | 57.37531 | 24.21985 | 10075 ft | 324 kts | 63° |
| 2026-05-07 18:57 | 57.38480 | 24.25820 | 10846 ft | 329 kts | 63° |
| 2026-05-07 18:57 | 57.39454 | 24.29706 | 11691 ft | 335 kts | 63° |
| 2026-05-07 18:58 | 57.40550 | 24.33591 | 12443 ft | 341 kts | 54° |
| 2026-05-07 18:58 | 57.42123 | 24.36907 | 13190 ft | 345 kts | 38° |
| 2026-05-07 18:58 | 57.44119 | 24.39366 | 13932 ft | 348 kts | 22° |
| 2026-05-07 18:58 | 57.46422 | 24.40777 | 14577 ft | 349 kts | 7° |
| 2026-05-07 18:59 | 57.48836 | 24.41012 | 15234 ft | 349 kts | 352° |
| 2026-05-07 18:59 | 57.51271 | 24.40543 | 15963 ft | 353 kts | 349° |
| 2026-05-07 18:59 | 57.53692 | 24.40121 | 16676 ft | 357 kts | 351° |
| 2026-05-07 18:59 | 57.56194 | 24.39888 | 17374 ft | 363 kts | 354° |
| 2026-05-07 19:00 | 57.58750 | 24.39895 | 18038 ft | 370 kts | 356° |
| 2026-05-07 19:00 | 57.61343 | 24.40057 | 18658 ft | 376 kts | 357° |
| 2026-05-07 19:00 | 57.64011 | 24.40287 | 19255 ft | 381 kts | 357° |
| 2026-05-07 19:00 | 57.66638 | 24.40487 | 19837 ft | 384 kts | 356° |
| 2026-05-07 19:01 | 57.69323 | 24.40646 | 20444 ft | 388 kts | 356° |
| 2026-05-07 19:01 | 57.72031 | 24.40777 | 21043 ft | 392 kts | 355° |
| 2026-05-07 19:01 | 57.74771 | 24.40903 | 21605 ft | 395 kts | 355° |
| 2026-05-07 19:01 | 57.77533 | 24.41037 | 22166 ft | 399 kts | 355° |
| 2026-05-07 19:02 | 57.80325 | 24.41181 | 22723 ft | 403 kts | 355° |
| 2026-05-07 19:02 | 57.83143 | 24.41337 | 22993 ft | 405 kts | 355° |
| 2026-05-07 19:02 | 57.85918 | 24.41504 | 23031 ft | 393 kts | 355° |
| 2026-05-07 19:02 | 57.88632 | 24.41668 | 23033 ft | 389 kts | 355° |
| 2026-05-07 19:03 | 57.91332 | 24.41819 | 23031 ft | 388 kts | 355° |
| 2026-05-07 19:03 | 57.94026 | 24.41960 | 23024 ft | 387 kts | 355° |
| 2026-05-07 19:03 | 57.96720 | 24.42095 | 23024 ft | 387 kts | 355° |
| 2026-05-07 19:03 | 57.99414 | 24.42234 | 23040 ft | 387 kts | 355° |
| 2026-05-07 19:04 | 58.02107 | 24.42381 | 23037 ft | 387 kts | 355° |
| 2026-05-07 19:04 | 58.04802 | 24.42533 | 23029 ft | 387 kts | 355° |
| 2026-05-07 19:04 | 58.07492 | 24.42685 | 23029 ft | 387 kts | 355° |
| 2026-05-07 19:04 | 58.10190 | 24.42839 | 23036 ft | 387 kts | 355° |
| 2026-05-07 19:05 | 58.12879 | 24.42991 | 23068 ft | 387 kts | 354° |
| 2026-05-07 19:05 | 58.15572 | 24.43143 | 23062 ft | 386 kts | 354° |
| 2026-05-07 19:05 | 58.18256 | 24.43295 | 23057 ft | 386 kts | 354° |
| 2026-05-07 19:05 | 58.20939 | 24.43447 | 23053 ft | 386 kts | 354° |
| 2026-05-07 19:06 | 58.23626 | 24.43600 | 23054 ft | 386 kts | 354° |
| 2026-05-07 19:06 | 58.28986 | 24.43906 | 23054 ft | 385 kts | 354° |
| 2026-05-07 19:06 | 58.31667 | 24.44063 | 23052 ft | 385 kts | 354° |
| 2026-05-07 19:07 | 58.34344 | 24.44217 | 23049 ft | 385 kts | 354° |
| 2026-05-07 19:07 | 58.37049 | 24.44365 | 23035 ft | 395 kts | 354° |
| 2026-05-07 19:07 | 58.39817 | 24.44509 | 23037 ft | 400 kts | 355° |
| 2026-05-07 19:07 | 58.42601 | 24.44660 | 23041 ft | 400 kts | 355° |
| 2026-05-07 19:08 | 58.45385 | 24.44821 | 23033 ft | 400 kts | 355° |
| 2026-05-07 19:08 | 58.48168 | 24.44986 | 23039 ft | 400 kts | 355° |
| 2026-05-07 19:08 | 58.50952 | 24.45150 | 23035 ft | 400 kts | 355° |
| 2026-05-07 19:08 | 58.53738 | 24.45312 | 23059 ft | 400 kts | 355° |
| 2026-05-07 19:09 | 58.56517 | 24.45473 | 22928 ft | 397 kts | 355° |
| 2026-05-07 19:09 | 58.59261 | 24.45631 | 22370 ft | 392 kts | 355° |
| 2026-05-07 19:09 | 58.61978 | 24.45787 | 21828 ft | 389 kts | 355° |
| 2026-05-07 19:09 | 58.64669 | 24.45944 | 21302 ft | 385 kts | 355° |
| 2026-05-07 19:10 | 58.67335 | 24.46098 | 20794 ft | 381 kts | 355° |
| 2026-05-07 19:10 | 58.69976 | 24.46248 | 20293 ft | 378 kts | 355° |
| 2026-05-07 19:10 | 58.72592 | 24.46398 | 19852 ft | 374 kts | 355° |
| 2026-05-07 19:10 | 58.75184 | 24.46548 | 19383 ft | 371 kts | 355° |
| 2026-05-07 19:11 | 58.77750 | 24.46694 | 18923 ft | 368 kts | 355° |
| 2026-05-07 19:11 | 58.80298 | 24.46839 | 18476 ft | 364 kts | 355° |
| 2026-05-07 19:11 | 58.82788 | 24.46984 | 17998 ft | 361 kts | 355° |
| 2026-05-07 19:11 | 58.85285 | 24.47133 | 17507 ft | 358 kts | 356° |
| 2026-05-07 19:12 | 58.87770 | 24.47288 | 17032 ft | 355 kts | 356° |
| 2026-05-07 19:12 | 58.90229 | 24.47437 | 16566 ft | 351 kts | 356° |
| 2026-05-07 19:12 | 58.92662 | 24.47575 | 16107 ft | 348 kts | 356° |
| 2026-05-07 19:12 | 58.95069 | 24.47710 | 15653 ft | 345 kts | 356° |
| 2026-05-07 19:13 | 58.97462 | 24.47846 | 15203 ft | 342 kts | 356° |
| 2026-05-07 19:13 | 58.99828 | 24.47985 | 14773 ft | 339 kts | 357° |
| 2026-05-07 19:13 | 59.02181 | 24.48127 | 14331 ft | 336 kts | 357° |
| 2026-05-07 19:13 | 59.04507 | 24.48271 | 14005 ft | 331 kts | 357° |
| 2026-05-07 19:14 | 59.06763 | 24.48414 | 13875 ft | 319 kts | 357° |
| 2026-05-07 19:14 | 59.08947 | 24.48554 | 13739 ft | 308 kts | 357° |
| 2026-05-07 19:14 | 59.11063 | 24.48683 | 13466 ft | 302 kts | 357° |
| 2026-05-07 19:14 | 59.13156 | 24.48803 | 13108 ft | 300 kts | 357° |
| 2026-05-07 19:15 | 59.15232 | 24.48918 | 12741 ft | 297 kts | 357° |
| 2026-05-07 19:15 | 59.17297 | 24.49032 | 12372 ft | 296 kts | 357° |
| 2026-05-07 19:15 | 59.19350 | 24.49146 | 12006 ft | 294 kts | 357° |
| 2026-05-07 19:15 | 59.21385 | 24.49264 | 11638 ft | 292 kts | 358° |
| 2026-05-07 19:16 | 59.23412 | 24.49384 | 11276 ft | 290 kts | 358° |
| 2026-05-07 19:16 | 59.25427 | 24.49506 | 10910 ft | 288 kts | 358° |
| 2026-05-07 19:16 | 59.27400 | 24.49622 | 10550 ft | 287 kts | 358° |
| 2026-05-07 19:16 | 59.29407 | 24.49737 | 9912 ft | 294 kts | 359° |
| 2026-05-07 19:17 | 59.31521 | 24.49853 | 9037 ft | 305 kts | 360° |
| 2026-05-07 19:17 | 59.33678 | 24.49973 | 8168 ft | 315 kts | 0° |
| 2026-05-07 19:17 | 59.35867 | 24.50219 | 7696 ft | 311 kts | 6° |
| 2026-05-07 19:17 | 59.37993 | 24.50712 | 7119 ft | 310 kts | 4° |
| 2026-05-07 19:18 | 59.40158 | 24.51009 | 6491 ft | 310 kts | 2° |
| 2026-05-07 19:18 | 59.42265 | 24.50775 | 6295 ft | 297 kts | 352° |
| 2026-05-07 19:18 | 59.44155 | 24.49669 | 6291 ft | 279 kts | 336° |
| 2026-05-07 19:18 | 59.45738 | 24.47668 | 6288 ft | 264 kts | 320° |
| 2026-05-07 19:19 | 59.46797 | 24.44899 | 6439 ft | 246 kts | 295° |
| 2026-05-07 19:19 | 59.47070 | 24.41739 | 6579 ft | 230 kts | 266° |
| 2026-05-07 19:19 | 59.46699 | 24.38702 | 6546 ft | 230 kts | 257° |
| 2026-05-07 19:19 | 59.46395 | 24.35644 | 6288 ft | 225 kts | 268° |
| 2026-05-07 19:20 | 59.46281 | 24.32596 | 6087 ft | 223 kts | 268° |
| 2026-05-07 19:20 | 59.46006 | 24.29606 | 5810 ft | 224 kts | 252° |
| 2026-05-07 19:20 | 59.45169 | 24.27047 | 5536 ft | 226 kts | 223° |
| 2026-05-07 19:20 | 59.43784 | 24.25638 | 5238 ft | 226 kts | 191° |
| 2026-05-07 19:21 | 59.42239 | 24.25786 | 4969 ft | 224 kts | 160° |
| 2026-05-07 19:21 | 59.40911 | 24.27442 | 4295 ft | 235 kts | 128° |
| 2026-05-07 19:21 | 59.40236 | 24.30363 | 3700 ft | 239 kts | 92° |
| 2026-05-07 19:21 | 59.40437 | 24.33530 | 3430 ft | 230 kts | 79° |
| 2026-05-07 19:22 | 59.40751 | 24.36459 | 3346 ft | 218 kts | 67° |
| 2026-05-07 19:22 | 59.41411 | 24.39129 | 3060 ft | 215 kts | 59° |
| 2026-05-07 19:22 | 59.42105 | 24.41672 | 2901 ft | 208 kts | 59° |
| 2026-05-07 19:22 | 59.42784 | 24.44162 | 2694 ft | 206 kts | 59° |
| 2026-05-07 19:23 | 59.43428 | 24.46605 | 2654 ft | 190 kts | 65° |
| 2026-05-07 19:23 | 59.43693 | 24.48898 | 2946 ft | 163 kts | 85° |
| 2026-05-07 19:23 | 59.43560 | 24.51157 | 2952 ft | 176 kts | 102° |
| 2026-05-07 19:23 | 59.43222 | 24.53401 | 2850 ft | 166 kts | 109° |
| 2026-05-07 19:24 | 59.42807 | 24.55443 | 2665 ft | 159 kts | 124° |
| 2026-05-07 19:24 | 59.42391 | 24.57469 | 2303 ft | 160 kts | 121° |
| 2026-05-07 19:24 | 59.42068 | 24.59536 | 2114 ft | 166 kts | 115° |
| 2026-05-07 19:24 | 59.41664 | 24.61859 | 2347 ft | 178 kts | 123° |
| 2026-05-07 19:25 | 59.41197 | 24.63974 | 2378 ft | 163 kts | 124° |
| 2026-05-07 19:25 | 59.40777 | 24.65997 | 2321 ft | 158 kts | 121° |
| 2026-05-07 19:25 | 59.40480 | 24.68030 | 2264 ft | 155 kts | 104° |
| 2026-05-07 19:25 | 59.40649 | 24.70133 | 1949 ft | 155 kts | 79° |
| 2026-05-07 19:26 | 59.41056 | 24.72041 | 1642 ft | 148 kts | 79° |
| 2026-05-07 19:26 | 59.41349 | 24.73941 | 1367 ft | 144 kts | 90° |
| 2026-05-07 19:26 | 59.41419 | 24.75879 | 1106 ft | 141 kts | 103° |
| 2026-05-07 19:26 | 59.41417 | 24.77805 | 849 ft | 144 kts | 100° |
| 2026-05-07 19:27 | 59.41360 | 24.79727 | 566 ft | 142 kts | 111° |
| 2026-05-07 19:27 | 59.41352 | 24.81680 | 280 ft | 142 kts | 105° |
| 2026-05-07 19:27 | 59.41334 | 24.83553 | 162 ft | 135 kts | 96° |
| 2026-05-07 19:27 | 59.41356 | 24.85004 | 141 ft | 50 kts | 89° |
| 2026-05-07 19:28 | 59.41348 | 24.85135 | 142 ft | 0 kts | 109° |
| 2026-05-07 19:28 | 59.41344 | 24.85154 | 142 ft | 0 kts | 116° |
| 2026-05-07 19:29 | 59.41343 | 24.85194 | 143 ft | 0 kts | 66° |